BEE82X EGJB-EGBB
Flight info
| Callsign | BEE82X |
|---|---|
| Flight time | N/A |
| Altitude | 17000 |
| Route | ORIST Y110 VEXEN/N0372F150 Y110 THRED Z171 SAM Q41 SILVA |
| Aircraft | E195/M-SDE3GILORVW/S |
Departure
| Time | 2026-04-21 19:14 |
|---|---|
| Airport | Guernsey Airport (EGJB) |
Arrival
| Time | N/A |
|---|---|
| Airport | Birmingham Airport (EGBB) |
| Time | Latitude | Longitude | Altitude | Speed | Heading |
|---|---|---|---|---|---|
| 2026-04-21 18:38 | 49.43257 | -2.59622 | 337 ft | 0 kts | 178° |
| 2026-04-21 18:59 | 49.43263 | -2.59622 | 337 ft | 2 kts | 176° |
| 2026-04-21 19:00 | 49.43277 | -2.59624 | 336 ft | 2 kts | 179° |
| 2026-04-21 19:00 | 49.43293 | -2.59624 | 336 ft | 2 kts | 178° |
| 2026-04-21 19:00 | 49.43308 | -2.59625 | 336 ft | 2 kts | 179° |
| 2026-04-21 19:00 | 49.43323 | -2.59625 | 336 ft | 2 kts | 179° |
| 2026-04-21 19:01 | 49.43338 | -2.59624 | 336 ft | 2 kts | 201° |
| 2026-04-21 19:01 | 49.43351 | -2.59612 | 336 ft | 2 kts | 223° |
| 2026-04-21 19:01 | 49.43360 | -2.59593 | 337 ft | 2 kts | 247° |
| 2026-04-21 19:01 | 49.43363 | -2.59577 | 337 ft | 0 kts | 264° |
| 2026-04-21 19:02 | 49.43364 | -2.59565 | 337 ft | 0 kts | 268° |
| 2026-04-21 19:06 | 49.43363 | -2.59567 | 337 ft | 1 kts | 268° |
| 2026-04-21 19:06 | 49.43362 | -2.59617 | 336 ft | 7 kts | 268° |
| 2026-04-21 19:06 | 49.43358 | -2.59717 | 334 ft | 10 kts | 262° |
| 2026-04-21 19:06 | 49.43347 | -2.59809 | 332 ft | 7 kts | 261° |
| 2026-04-21 19:07 | 49.43343 | -2.59907 | 330 ft | 11 kts | 265° |
| 2026-04-21 19:07 | 49.43343 | -2.59930 | 330 ft | 2 kts | 269° |
| 2026-04-21 19:07 | 49.43342 | -2.59981 | 329 ft | 6 kts | 268° |
| 2026-04-21 19:07 | 49.43340 | -2.60075 | 325 ft | 11 kts | 268° |
| 2026-04-21 19:08 | 49.43337 | -2.60190 | 321 ft | 11 kts | 267° |
| 2026-04-21 19:08 | 49.43330 | -2.60342 | 315 ft | 16 kts | 266° |
| 2026-04-21 19:08 | 49.43327 | -2.60503 | 309 ft | 16 kts | 265° |
| 2026-04-21 19:08 | 49.43332 | -2.60660 | 305 ft | 14 kts | 281° |
| 2026-04-21 19:09 | 49.43352 | -2.60833 | 302 ft | 17 kts | 280° |
| 2026-04-21 19:09 | 49.43361 | -2.61027 | 301 ft | 19 kts | 268° |
| 2026-04-21 19:09 | 49.43359 | -2.61140 | 301 ft | 9 kts | 267° |
| 2026-04-21 19:09 | 49.43357 | -2.61220 | 301 ft | 0 kts | 276° |
| 2026-04-21 19:11 | 49.43357 | -2.61221 | 301 ft | 0 kts | 276° |
| 2026-04-21 19:11 | 49.43362 | -2.61248 | 300 ft | 4 kts | 294° |
| 2026-04-21 19:11 | 49.43391 | -2.61310 | 299 ft | 9 kts | 310° |
| 2026-04-21 19:11 | 49.43451 | -2.61374 | 298 ft | 9 kts | 0° |
| 2026-04-21 19:12 | 49.43465 | -2.61357 | 298 ft | 0 kts | 83° |
| 2026-04-21 19:13 | 49.43474 | -2.61061 | 299 ft | 67 kts | 88° |
| 2026-04-21 19:13 | 49.43504 | -2.59955 | 330 ft | 136 kts | 86° |
| 2026-04-21 19:13 | 49.43552 | -2.58317 | 720 ft | 161 kts | 84° |
| 2026-04-21 19:14 | 49.43593 | -2.56649 | 1622 ft | 157 kts | 87° |
| 2026-04-21 19:14 | 49.43643 | -2.54934 | 2217 ft | 172 kts | 88° |
| 2026-04-21 19:14 | 49.43695 | -2.52970 | 2752 ft | 196 kts | 87° |
| 2026-04-21 19:14 | 49.43797 | -2.50742 | 3245 ft | 221 kts | 77° |
| 2026-04-21 19:15 | 49.44697 | -2.48742 | 3959 ft | 247 kts | 39° |
| 2026-04-21 19:15 | 49.46378 | -2.47849 | 4878 ft | 264 kts | 17° |
| 2026-04-21 19:15 | 49.48125 | -2.47307 | 6013 ft | 257 kts | 17° |
| 2026-04-21 19:15 | 49.49868 | -2.46704 | 6883 ft | 261 kts | 17° |
| 2026-04-21 19:16 | 49.51661 | -2.46051 | 7681 ft | 267 kts | 17° |
| 2026-04-21 19:16 | 49.53474 | -2.45376 | 8468 ft | 273 kts | 16° |
| 2026-04-21 19:16 | 49.55323 | -2.44678 | 9243 ft | 277 kts | 15° |
| 2026-04-21 19:16 | 49.57214 | -2.43960 | 10017 ft | 281 kts | 15° |